Time;durP1;ratioP1;P1;durP2;ratioP2;P2;SDS_P1;SDS_P2;PMS_P1;PMS_P2;Temp;Humidity;BMP_temperature;BMP_pressure;BME280_temperature;BME280_humidity;BME280_pressure;Samples;Min_cycle;Max_cycle;Signal;HPM_P1;HPM_P2
2022/08/23 00:01:59;;;;;;;29.90;10.67;;;;;;;19.69;100.00;99680.94;4190571;28;20240;-64
2022/08/23 00:04:29;;;;;;;29.97;10.63;;;;;;;19.73;100.00;99687.53;4190784;28;20244;-62
2022/08/23 00:07:00;;;;;;;26.23;11.07;;;;;;;19.67;100.00;99683.00;4193938;28;21780;-64
2022/08/23 00:09:27;;;;;;;32.30;11.40;;;;;;;19.58;100.00;99689.75;4194603;28;20254;-64
2022/08/23 00:12:05;;;;;;;28.87;10.77;;;;;;;19.63;100.00;99687.19;4188940;28;20237;-62
2022/08/23 00:14:33;;;;;;;26.93;10.43;;;;;;;19.57;100.00;99694.31;4220458;28;20548;-63
2022/08/23 00:17:01;;;;;;;30.57;10.77;;;;;;;19.52;100.00;99680.66;4196060;28;20238;-61
2022/08/23 00:19:27;;;;;;;39.50;11.03;;;;;;;19.48;100.00;99684.00;4197484;28;21062;-62
2022/08/23 00:21:55;;;;;;;27.13;11.23;;;;;;;19.47;100.00;99682.38;4199637;28;20241;-62
2022/08/23 00:24:23;;;;;;;31.57;9.90;;;;;;;19.47;100.00;99682.38;4191991;28;21146;-63
2022/08/23 00:27:06;;;;;;;31.27;10.80;;;;;;;19.49;100.00;99678.41;4190680;28;20241;-62
2022/08/23 00:29:46;;;;;;;36.47;11.43;;;;;;;19.48;100.00;99673.22;4188830;28;20573;-62
2022/08/23 00:32:15;;;;;;;34.50;10.83;;;;;;;19.46;100.00;99672.63;4197455;28;20237;-61
2022/08/23 00:34:42;;;;;;;41.43;11.37;;;;;;;19.47;100.00;99669.69;4190562;28;20585;-63
2022/08/23 00:37:09;;;;;;;35.33;11.27;;;;;;;19.50;100.00;99671.13;4193531;28;20291;-62
2022/08/23 00:39:37;;;;;;;43.20;11.57;;;;;;;19.54;100.00;99677.75;4201114;28;20347;-64
2022/08/23 00:47:38;;;;;;;39.70;12.23;;;;;;;19.49;100.00;99677.59;4187079;28;20267;-63
2022/08/23 00:47:45;;;;;;;46.43;12.27;;;;;;;19.47;100.00;99683.19;4200429;28;20268;-64
2022/08/23 00:50:25;;;;;;;38.23;12.03;;;;;;;19.41;100.00;99684.09;4195140;28;20253;-61
2022/08/23 00:53:10;;;;;;;37.67;11.37;;;;;;;19.37;100.00;99682.88;4187872;28;24114;-62
2022/08/23 00:55:39;;;;;;;40.67;12.27;;;;;;;19.40;100.00;99693.22;4192399;28;20274;-62
2022/08/23 00:58:06;;;;;;;36.63;11.83;;;;;;;19.39;100.00;99694.28;4191114;28;20858;-63
2022/08/23 01:00:34;;;;;;;37.20;11.93;;;;;;;19.29;100.00;99700.19;4189361;28;23701;-63
2022/08/23 01:03:01;;;;;;;31.73;12.30;;;;;;;19.29;100.00;99704.72;4193270;28;23533;-63
2022/08/23 01:05:35;;;;;;;31.50;10.93;;;;;;;19.40;100.00;99704.00;4197251;28;20237;-64
2022/08/23 01:08:01;;;;;;;30.63;11.13;;;;;;;19.47;100.00;99715.56;4185774;28;20236;-64
2022/08/23 01:10:32;;;;;;;31.87;10.63;;;;;;;19.50;100.00;99715.16;4187809;28;20243;-65
2022/08/23 01:13:05;;;;;;;36.30;10.47;;;;;;;19.55;100.00;99711.75;4196578;28;20234;-61
2022/08/23 01:15:36;;;;;;;29.77;11.00;;;;;;;19.55;100.00;99712.59;4202692;28;20236;-64
2022/08/23 01:18:08;;;;;;;42.30;11.40;;;;;;;19.57;100.00;99720.47;4181541;28;20329;-62
2022/08/23 01:20:47;;;;;;;25.30;10.83;;;;;;;19.58;100.00;99735.63;4192176;28;21478;-61
2022/08/23 01:23:23;;;;;;;43.90;11.90;;;;;;;19.71;100.00;99730.13;4208764;28;20279;-62
2022/08/23 01:25:50;;;;;;;38.03;11.33;;;;;;;19.71;100.00;99730.13;4179365;28;20251;-62
2022/08/23 01:28:17;;;;;;;38.00;10.90;;;;;;;19.73;100.00;99738.00;4200007;28;20658;-63
2022/08/23 01:30:45;;;;;;;33.90;11.63;;;;;;;19.73;100.00;99744.22;4190704;28;20367;-63
2022/08/23 01:33:11;;;;;;;33.10;10.80;;;;;;;19.75;100.00;99744.84;4188841;28;21243;-62
2022/08/23 01:35:44;;;;;;;30.97;11.13;;;;;;;19.78;100.00;99751.66;4188210;28;20237;-65
2022/08/23 01:38:11;;;;;;;46.73;12.17;;;;;;;19.79;100.00;99756.84;4201559;28;21619;-63
2022/08/23 01:40:39;;;;;;;27.93;11.57;;;;;;;19.75;100.00;99749.41;4192137;28;20607;-62
2022/08/23 01:43:06;;;;;;;27.33;10.30;;;;;;;19.79;100.00;99750.63;4188874;28;20281;-62
2022/08/23 01:45:33;;;;;;;30.93;11.17;;;;;;;19.70;100.00;99752.78;4193439;28;20264;-61
2022/08/23 01:47:59;;;;;;;32.50;11.60;;;;;;;19.63;100.00;99746.59;4213386;28;21653;-63
2022/08/23 01:50:27;;;;;;;33.90;11.90;;;;;;;19.60;100.00;99747.03;4200202;28;20607;-61
2022/08/23 01:52:54;;;;;;;34.67;12.77;;;;;;;19.51;100.00;99732.16;4186276;28;20317;-63
2022/08/23 01:55:21;;;;;;;40.60;11.80;;;;;;;19.57;100.00;99725.88;4199078;28;20245;-64
2022/08/23 01:57:50;;;;;;;34.40;12.17;;;;;;;19.51;100.00;99732.16;4197341;28;22606;-63
2022/08/23 02:00:17;;;;;;;36.47;12.23;;;;;;;19.51;100.00;99749.19;4194974;28;20252;-64
2022/08/23 02:02:45;;;;;;;38.07;13.60;;;;;;;19.46;100.00;99751.72;4190575;28;20296;-63
2022/08/23 02:05:13;;;;;;;38.80;12.77;;;;;;;19.36;100.00;99757.59;4193007;28;23792;-63
2022/08/23 02:07:45;;;;;;;33.90;12.80;;;;;;;19.31;100.00;99752.00;4182090;28;20240;-63
2022/08/23 02:10:11;;;;;;;32.97;13.10;;;;;;;19.28;100.00;99747.06;4192852;28;20241;-62
2022/08/23 02:12:38;;;;;;;36.27;14.17;;;;;;;19.14;100.00;99748.22;4193001;28;20327;-62
2022/08/23 02:15:05;;;;;;;43.83;14.63;;;;;;;19.10;100.00;99763.16;4195848;28;20362;-62
2022/08/23 02:17:32;;;;;;;45.53;15.70;;;;;;;19.05;100.00;99760.31;4189769;28;20414;-63
2022/08/23 02:20:00;;;;;;;56.37;16.07;;;;;;;19.02;100.00;99761.56;4191865;28;23224;-62
2022/08/23 02:22:27;;;;;;;40.90;17.03;;;;;;;18.93;100.00;99770.94;4191719;28;21888;-63
2022/08/23 02:24:54;;;;;;;51.23;17.87;;;;;;;18.90;100.00;99742.56;4189114;28;20594;-60
2022/08/23 02:27:20;;;;;;;40.50;16.70;;;;;;;18.92;100.00;99740.47;4195917;28;20387;-63
2022/08/23 02:29:47;;;;;;;43.07;17.40;;;;;;;18.94;100.00;99748.31;4187738;28;20239;-64
2022/08/23 02:32:18;;;;;;;54.37;19.97;;;;;;;18.89;100.00;99730.09;4184733;28;20624;-62
2022/08/23 02:34:45;;;;;;;46.57;19.73;;;;;;;18.85;100.00;99728.91;4190358;28;20594;-62
2022/08/23 02:37:31;;;;;;;55.37;18.60;;;;;;;18.81;100.00;99711.50;4209439;28;20851;-62
2022/08/23 02:39:57;;;;;;;50.33;20.13;;;;;;;18.80;100.00;99699.06;4203246;28;20491;-61
2022/08/23 02:42:24;;;;;;;41.97;17.83;;;;;;;18.87;100.00;99701.69;4199235;28;20727;-62
2022/08/23 02:44:51;;;;;;;39.60;18.13;;;;;;;18.83;100.00;99698.63;4213383;28;20614;-61
2022/08/23 02:47:18;;;;;;;46.73;20.23;;;;;;;18.77;100.00;99704.88;4215454;28;20327;-62
2022/08/23 02:49:45;;;;;;;51.37;20.57;;;;;;;18.67;100.00;99707.19;4195808;28;20257;-65
2022/08/23 02:52:11;;;;;;;49.57;20.40;;;;;;;18.70;100.00;99704.06;4193236;28;20934;-62
2022/08/23 02:54:38;;;;;;;44.50;19.50;;;;;;;18.70;100.00;99709.44;4195971;28;20241;-65
2022/08/23 02:57:05;;;;;;;46.63;20.00;;;;;;;18.63;100.00;99700.56;4192093;28;20406;-64
2022/08/23 02:59:31;;;;;;;40.13;19.60;;;;;;;18.65;100.00;99701.19;4196357;28;20292;-62
2022/08/23 03:01:58;;;;;;;46.30;20.53;;;;;;;18.61;100.00;99698.09;4197032;28;21192;-63
2022/08/23 03:04:24;;;;;;;46.83;21.20;;;;;;;18.71;100.00;99705.72;4205069;28;20236;-61
2022/08/23 03:06:51;;;;;;;44.33;20.87;;;;;;;18.72;100.00;99701.97;4188857;28;21685;-65
2022/08/23 03:09:18;;;;;;;45.27;21.23;;;;;;;18.72;100.00;99700.09;4190709;28;22193;-65
2022/08/23 03:11:46;;;;;;;53.10;22.60;;;;;;;18.67;100.00;99688.34;4198157;28;20246;-61
2022/08/23 03:14:13;;;;;;;46.53;21.60;;;;;;;18.65;100.00;99687.72;4195794;28;20240;-64
2022/08/23 03:16:40;;;;;;;41.60;19.80;;;;;;;18.76;100.00;99681.66;4193139;28;21586;-65
2022/08/23 03:19:06;;;;;;;48.60;21.13;;;;;;;18.73;100.00;99671.28;4197907;28;20266;-62
2022/08/23 03:21:33;;;;;;;48.10;20.93;;;;;;;18.75;100.00;99677.28;4192075;28;20297;-67
2022/08/23 03:24:00;;;;;;;49.97;20.00;;;;;;;18.74;100.00;99675.63;4196290;28;20617;-61
2022/08/23 03:26:32;;;;;;;38.33;20.67;;;;;;;18.70;100.00;99683.31;4199824;28;21242;-63
2022/08/23 03:28:58;;;;;;;45.20;20.37;;;;;;;18.71;100.00;99681.47;4203792;28;20233;-63
2022/08/23 03:31:25;;;;;;;48.57;22.07;;;;;;;18.63;100.00;99671.75;4193780;28;20488;-61
2022/08/23 03:33:57;;;;;;;38.27;20.57;;;;;;;18.67;100.00;99682.94;4195191;28;20429;-63
2022/08/23 03:36:24;;;;;;;50.67;22.50;;;;;;;18.67;100.00;99672.16;4197395;28;20247;-63
2022/08/23 03:38:53;;;;;;;48.17;21.07;;;;;;;18.61;100.00;99681.09;4191190;28;21726;-63
2022/08/23 03:41:20;;;;;;;39.33;20.83;;;;;;;18.64;100.00;99668.03;4202033;28;20244;-64
2022/08/23 03:43:47;;;;;;;48.67;21.27;;;;;;;18.66;100.00;99667.81;4195943;28;23071;-62
2022/08/23 03:46:21;;;;;;;39.63;20.23;;;;;;;18.73;100.00;99676.66;4203264;28;20240;-62
2022/08/23 03:48:58;;;;;;;40.20;20.17;;;;;;;18.74;100.00;99678.34;4212649;28;22161;-64
2022/08/23 03:51:27;;;;;;;48.60;22.67;;;;;;;18.73;100.00;99669.44;4221440;28;21707;-63
2022/08/23 03:53:54;;;;;;;48.03;21.97;;;;;;;18.76;100.00;99670.88;4252287;28;20322;-62
2022/08/23 03:56:31;;;;;;;41.80;21.27;;;;;;;18.82;100.00;99677.28;4240246;28;24896;-62
2022/08/23 03:59:00;;;;;;;45.37;22.33;;;;;;;18.84;100.00;99672.50;4234194;28;20234;-61
2022/08/23 04:01:27;;;;;;;43.47;20.07;;;;;;;18.85;100.00;99669.59;4265956;28;20307;-60
2022/08/23 04:03:58;;;;;;;50.90;21.47;;;;;;;18.87;100.00;99669.34;4239504;28;20229;-62
2022/08/23 04:06:28;;;;;;;55.57;22.93;;;;;;;18.81;100.00;99667.56;4221731;28;25839;-61
2022/08/23 04:08:55;;;;;;;45.93;20.90;;;;;;;18.81;100.00;99668.38;4215599;28;20279;-62
2022/08/23 04:11:23;;;;;;;48.13;21.63;;;;;;;18.84;100.00;99662.53;4231554;28;21930;-62
2022/08/23 04:13:50;;;;;;;46.10;21.30;;;;;;;18.85;100.00;99661.50;4219615;28;25493;-62
2022/08/23 04:16:17;;;;;;;47.57;21.03;;;;;;;18.82;100.00;99664.63;4234385;28;20244;-64
2022/08/23 04:18:44;;;;;;;45.23;22.20;;;;;;;18.85;100.00;99668.78;4222928;28;20277;-63
2022/08/23 04:21:15;;;;;;;51.97;22.10;;;;;;;18.85;100.00;99674.97;4228332;28;20374;-62
2022/08/23 04:23:42;;;;;;;45.17;21.60;;;;;;;18.82;100.00;99669.19;4209354;28;20297;-62
2022/08/23 04:26:09;;;;;;;47.17;20.37;;;;;;;18.86;100.00;99670.41;4220567;28;21216;-62
2022/08/23 04:28:37;;;;;;;39.23;20.07;;;;;;;18.93;100.00;99679.28;4212680;28;20413;-63
2022/08/23 04:31:04;;;;;;;43.13;20.57;;;;;;;18.96;100.00;99689.63;4209031;28;20240;-61
2022/08/23 04:33:31;;;;;;;49.63;22.83;;;;;;;18.96;100.00;99693.16;4219012;28;20298;-63
2022/08/23 04:36:00;;;;;;;44.23;21.53;;;;;;;19.00;100.00;99692.72;4197542;28;20288;-63
2022/08/23 04:38:27;;;;;;;38.10;19.87;;;;;;;18.97;100.00;99694.81;4209309;28;20239;-64
2022/08/23 04:43:40;;;;;;;46.20;21.20;;;;;;;19.00;100.00;99715.09;4209491;28;22421;-63
2022/08/23 04:46:09;;;;;;;45.80;21.37;;;;;;;19.01;100.00;99707.84;4230208;28;20236;-62
2022/08/23 04:48:35;;;;;;;42.03;20.17;;;;;;;19.07;100.00;99717.75;4197860;28;20301;-61
2022/08/23 04:51:02;;;;;;;42.90;21.20;;;;;;;19.06;100.00;99724.19;4205521;28;23758;-64
2022/08/23 04:53:29;;;;;;;40.40;20.50;;;;;;;19.03;100.00;99720.06;4200993;28;20808;-62
2022/08/23 04:55:57;;;;;;;43.27;21.33;;;;;;;19.03;100.00;99719.25;4194768;28;20240;-63
2022/08/23 04:58:23;;;;;;;37.07;20.67;;;;;;;19.05;100.00;99717.16;4228714;28;22085;-64
2022/08/23 05:00:50;;;;;;;45.60;22.27;;;;;;;19.08;100.00;99722.09;4196040;28;20243;-62
2022/08/23 05:03:17;;;;;;;46.57;22.00;;;;;;;19.05;100.00;99727.94;4197571;28;20238;-65
2022/08/23 05:05:44;;;;;;;42.60;21.53;;;;;;;19.10;100.00;99726.22;4190536;28;21806;-61
2022/08/23 05:08:10;;;;;;;39.23;20.63;;;;;;;19.20;100.00;99723.06;4194458;28;20288;-63
2022/08/23 05:10:37;;;;;;;36.50;21.53;;;;;;;19.30;100.00;99736.88;4180435;28;20364;-64
2022/08/23 05:13:03;;;;;;;46.57;21.20;;;;;;;19.27;100.00;99729.25;4197026;28;20311;-64
2022/08/23 05:15:30;;;;;;;39.87;19.93;;;;;;;19.35;100.00;99734.34;4192095;28;20324;-64
2022/08/23 05:17:57;;;;;;;35.77;18.73;;;;;;;19.33;100.00;99736.44;4200313;28;22694;-62
2022/08/23 05:20:24;;;;;;;40.50;18.30;;;;;;;19.37;100.00;99745.75;4184341;28;25358;-63
2022/08/23 05:22:51;;;;;;;39.53;18.93;;;;;;;19.36;100.00;99740.56;4182325;28;22167;-52
2022/08/23 05:25:18;;;;;;;35.07;17.43;;;;;;;19.48;100.00;99748.78;4194711;28;22715;-51
2022/08/23 05:27:45;;;;;;;36.33;17.37;;;;;;;19.48;100.00;99749.63;4186439;28;20237;-62
2022/08/23 05:30:12;;;;;;;27.40;16.30;;;;;;;19.63;100.00;99751.16;4202306;28;20295;-61
2022/08/23 05:32:41;;;;;;;36.90;16.87;;;;;;;19.56;100.00;99749.34;4194900;28;20374;-47
2022/08/23 05:35:08;;;;;;;36.10;16.53;;;;;;;19.61;100.00;99754.06;4191163;28;20224;-48
2022/08/23 05:37:34;;;;;;;32.13;15.57;;;;;;;19.76;100.00;99751.06;4189363;28;20249;-48
2022/08/23 05:40:01;;;;;;;32.33;14.97;;;;;;;19.84;100.00;99752.66;4190303;28;21338;-62
2022/08/23 05:42:28;;;;;;;30.33;15.87;;;;;;;19.85;100.00;99757.81;4178783;28;20309;-63
2022/08/23 05:44:55;;;;;;;27.40;15.20;;;;;;;19.94;100.00;99761.06;4194351;28;22618;-63
2022/08/23 05:47:25;;;;;;;26.13;14.87;;;;;;;20.05;100.00;99765.75;4190067;28;20232;-65
2022/08/23 05:49:52;;;;;;;31.33;16.17;;;;;;;20.08;100.00;99770.69;4198317;28;21989;-68
2022/08/23 05:52:19;;;;;;;35.47;15.50;;;;;;;20.28;100.00;99780.47;4199159;28;20288;-61
2022/08/23 05:54:45;;;;;;;29.87;14.30;;;;;;;20.46;100.00;99785.84;4192583;28;20240;-65
2022/08/23 05:57:12;;;;;;;29.00;13.03;;;;;;;20.50;100.00;99787.06;4191004;28;20582;-65
2022/08/23 05:59:40;;;;;;;27.93;13.10;;;;;;;20.61;100.00;99799.03;4186835;28;21088;-65
2022/08/23 06:02:07;;;;;;;33.07;13.27;;;;;;;20.72;100.00;99801.00;4204284;28;20233;-65
2022/08/23 06:04:34;;;;;;;27.33;13.13;;;;;;;20.84;100.00;99801.88;4190885;28;22950;-66
2022/08/23 06:07:01;;;;;;;30.67;12.97;;;;;;;21.05;100.00;99807.84;4196006;28;20245;-66
2022/08/23 06:09:28;;;;;;;25.70;13.13;;;;;;;21.25;100.00;99812.97;4189338;28;21003;-65
2022/08/23 06:11:54;;;;;;;25.07;12.57;;;;;;;21.44;100.00;99811.03;4201671;28;20257;-72
2022/08/23 06:14:22;;;;;;;28.83;13.63;;;;;;;21.66;100.00;99814.03;4209910;28;20776;-67
2022/08/23 06:16:49;;;;;;;29.30;12.23;;;;;;;21.75;100.00;99812.66;4193544;28;22944;-66
2022/08/23 06:19:22;;;;;;;28.47;10.73;;;;;;;21.99;99.12;99812.66;4222546;28;20233;-69
2022/08/23 06:21:50;;;;;;;20.30;11.17;;;;;;;22.25;98.50;99808.69;4202565;28;23346;-66
2022/08/23 06:24:16;;;;;;;21.27;10.60;;;;;;;22.57;96.59;99817.25;4210994;28;20587;-67
2022/08/23 06:26:44;;;;;;;20.23;11.20;;;;;;;22.75;93.71;99819.75;4203746;28;20386;-67
2022/08/23 06:29:13;;;;;;;24.43;10.60;;;;;;;22.82;91.41;99824.25;4199285;28;20252;-67
2022/08/23 06:31:47;;;;;;;29.67;11.57;;;;;;;22.76;91.43;99824.13;4212892;28;20241;-68
2022/08/23 06:34:26;;;;;;;27.07;11.27;;;;;;;22.87;90.64;99824.34;4256312;28;20231;-67
2022/08/23 06:36:55;;;;;;;27.90;10.20;;;;;;;23.16;88.64;99828.75;4202503;28;20237;-65
2022/08/23 06:39:24;;;;;;;24.20;10.00;;;;;;;23.58;88.28;99836.56;4194873;28;20246;-64
2022/08/23 06:41:52;;;;;;;20.87;9.87;;;;;;;24.60;84.15;99841.94;4193967;28;20241;-67
2022/08/23 06:44:19;;;;;;;26.67;10.23;;;;;;;25.93;76.43;99848.84;4200024;28;20448;-66
2022/08/23 06:46:48;;;;;;;23.85;9.70;;;;;;;26.90;69.80;99852.16;4198490;28;21862;-64
2022/08/23 06:49:15;;;;;;;30.30;9.75;;;;;;;27.25;66.06;99852.56;4202493;28;20625;-66
2022/08/23 06:51:44;;;;;;;24.37;9.87;;;;;;;27.87;64.51;99858.94;4196365;28;20237;-63
2022/08/23 06:54:13;;;;;;;22.53;8.60;;;;;;;28.30;61.52;99864.91;4192525;28;26009;-63
2022/08/23 06:56:40;;;;;;;19.35;9.25;;;;;;;28.55;61.58;99853.13;4204768;28;21571;-64
2022/08/23 06:59:07;;;;;;;24.75;8.60;;;;;;;29.10;57.30;99875.09;4210878;28;20305;-66
2022/08/23 07:01:40;;;;;;;17.42;7.82;;;;;;;29.27;56.96;99871.97;4235845;28;20254;-69
2022/08/23 07:04:14;;;;;;;23.60;8.97;;;;;;;29.30;56.04;99875.00;4209279;28;21717;-64
2022/08/23 07:06:41;;;;;;;25.33;8.60;;;;;;;29.48;56.62;99867.19;4204204;28;20670;-64
2022/08/23 07:09:07;;;;;;;25.30;10.30;;;;;;;29.50;55.59;99874.06;4201782;28;20237;-63
2022/08/23 07:11:34;;;;;;;23.63;7.90;;;;;;;29.61;54.26;99866.56;4235572;28;20731;-65
2022/08/23 07:14:04;;;;;;;23.27;8.48;;;;;;;29.39;55.15;99856.84;4199950;28;20238;-63
2022/08/23 07:16:32;;;;;;;19.90;7.30;;;;;;;29.01;55.14;99853.75;4213642;28;20318;-64
2022/08/23 07:18:59;;;;;;;25.23;7.20;;;;;;;28.91;55.58;99853.78;4238898;28;20257;-66
2022/08/23 07:21:26;;;;;;;21.23;7.60;;;;;;;29.01;56.55;99858.41;4242921;28;21037;-65
2022/08/23 07:23:53;;;;;;;23.83;7.40;;;;;;;29.00;56.05;99860.31;4235428;28;20237;-65
2022/08/23 07:26:21;;;;;;;17.97;7.33;;;;;;;28.92;55.53;99857.38;4291655;28;20219;-70
2022/08/23 07:28:48;;;;;;;18.27;6.33;;;;;;;29.28;54.45;99866.22;4227036;28;20224;-68
2022/08/23 07:31:22;;;;;;;27.77;6.90;;;;;;;28.94;55.11;99860.63;4219985;28;22290;-65
2022/08/23 07:33:49;;;;;;;17.70;6.90;;;;;;;28.84;55.84;99856.00;4211496;28;21546;-67
2022/08/23 07:36:19;;;;;;;26.17;7.20;;;;;;;29.22;54.91;99853.66;4243825;28;20246;-63
2022/08/23 07:38:45;;;;;;;20.83;7.40;;;;;;;29.39;53.75;99862.31;4206309;28;20293;-64
2022/08/23 07:41:13;;;;;;;25.92;7.68;;;;;;;29.58;53.45;99865.22;4214611;28;20237;-68
2022/08/23 07:43:40;;;;;;;18.80;7.57;;;;;;;29.58;54.54;99865.22;4253181;28;20659;-59
2022/08/23 07:46:07;;;;;;;21.30;7.87;;;;;;;29.51;54.74;99858.41;4234252;28;25179;-66
2022/08/23 07:48:34;;;;;;;19.00;7.00;;;;;;;29.52;54.06;99860.03;4201160;28;20722;-68
2022/08/23 07:51:19;;;;;;;20.80;8.20;;;;;;;28.84;55.95;99853.25;4211096;28;20237;-67
2022/08/23 07:53:46;;;;;;;27.03;8.17;;;;;;;28.54;57.57;99854.19;4203401;28;20292;-69
2022/08/23 07:56:15;;;;;;;21.47;7.60;;;;;;;28.42;58.32;99849.84;4210866;28;20237;-67
2022/08/23 07:58:42;;;;;;;21.70;8.10;;;;;;;28.13;60.00;99851.53;4194391;28;20240;-68
2022/08/23 08:01:11;;;;;;;25.80;8.13;;;;;;;27.79;61.65;99841.97;4195128;28;20237;-67
2022/08/23 08:03:38;;;;;;;18.83;7.47;;;;;;;27.58;62.56;99846.59;4192126;28;21051;-68
2022/08/23 08:06:26;;;;;;;20.17;7.47;;;;;;;27.36;64.13;99846.03;4185844;28;20238;-69
2022/08/23 08:08:53;;;;;;;24.33;7.73;;;;;;;26.99;65.93;99835.25;4198470;28;20244;-68
2022/08/23 08:11:22;;;;;;;21.93;7.87;;;;;;;27.07;66.33;99845.66;4198437;28;21371;-68
2022/08/23 08:13:49;;;;;;;23.20;7.97;;;;;;;27.10;66.40;99850.56;4197108;28;20237;-67
2022/08/23 08:16:28;;;;;;;22.07;8.27;;;;;;;26.94;65.33;99847.78;4209615;28;20231;-67
2022/08/23 08:18:58;;;;;;;27.70;8.53;;;;;;;26.93;66.40;99843.44;4233861;28;20232;-67
2022/08/23 08:21:26;;;;;;;22.23;7.90;;;;;;;27.05;68.00;99845.09;4200495;28;20245;-67
2022/08/23 08:23:54;;;;;;;21.70;7.87;;;;;;;27.29;65.41;99845.47;4238889;28;20308;-68
2022/08/23 08:26:21;;;;;;;21.73;7.57;;;;;;;27.91;64.02;99857.28;4212798;28;25751;-67
2022/08/23 08:28:48;;;;;;;19.17;8.07;;;;;;;28.00;62.87;99850.16;4215478;28;20270;-68
2022/08/23 08:31:15;;;;;;;23.63;7.93;;;;;;;27.96;63.80;99851.84;4189926;28;20267;-68
2022/08/23 08:33:42;;;;;;;18.57;7.80;;;;;;;27.70;64.15;99851.00;4194170;28;20238;-69
2022/08/23 08:36:27;;;;;;;20.17;8.03;;;;;;;27.45;66.09;99851.78;4194219;28;20238;-68
2022/08/23 08:38:53;;;;;;;24.93;8.47;;;;;;;27.21;67.56;99846.81;4300881;28;20233;-65
2022/08/23 08:41:54;;;;;;;32.50;8.57;;;;;;;26.82;67.19;99849.13;4199196;28;22128;-67
2022/08/23 08:44:46;;;;;;;22.90;7.73;;;;;;;26.93;68.36;99848.06;4205453;28;21470;-70
2022/08/23 08:47:21;;;;;;;25.27;8.60;;;;;;;26.83;69.68;99843.41;4243575;28;20290;-69
2022/08/23 08:49:57;;;;;;;25.03;7.83;;;;;;;26.85;68.94;99851.31;4239445;28;20457;-70
2022/08/23 08:52:29;;;;;;;25.23;8.00;;;;;;;26.94;70.03;99853.25;4211848;28;20375;-66
2022/08/23 08:55:06;;;;;;;21.90;7.77;;;;;;;26.85;70.52;99854.03;4233971;28;20239;-64
2022/08/23 08:57:41;;;;;;;25.70;7.83;;;;;;;26.91;69.54;99847.50;4227112;28;20239;-65
2022/08/23 09:00:12;;;;;;;25.10;8.33;;;;;;;26.70;71.12;99854.81;4227818;28;20889;-67
2022/08/23 09:02:40;;;;;;;30.63;8.83;;;;;;;26.64;72.01;99858.59;4261838;28;21780;-66
2022/08/23 09:05:18;;;;;;;23.07;8.63;;;;;;;26.83;72.23;99851.59;4231629;28;20311;-66
2022/08/23 09:07:54;;;;;;;24.57;8.90;;;;;;;27.09;70.06;99854.38;4242877;28;20235;-82
2022/08/23 09:10:57;;;;;;;26.20;8.77;;;;;;;27.06;68.55;99850.28;4287134;28;20396;-83
2022/08/23 09:13:39;;;;;;;27.47;9.07;;;;;;;26.98;68.25;99848.09;4231772;28;23340;-80
2022/08/23 09:16:24;;;;;;;32.63;9.10;;;;;;;26.99;68.73;99848.91;4227421;28;20227;-83
2022/08/23 09:18:53;;;;;;;23.33;7.87;;;;;;;27.19;68.29;99859.06;4232478;28;20246;-78
2022/08/23 09:21:20;;;;;;;22.87;8.17;;;;;;;27.09;68.86;99848.91;4219816;28;20243;-82
2022/08/23 09:23:49;;;;;;;28.77;8.57;;;;;;;27.03;68.83;99848.09;4229004;28;23273;-72
2022/08/23 09:26:29;;;;;;;30.13;8.70;;;;;;;26.75;69.85;99846.63;4231585;28;20264;-69
2022/08/23 09:29:15;;;;;;;31.37;8.23;;;;;;;26.87;70.05;99852.69;4184296;28;20236;-79
2022/08/23 09:31:49;;;;;;;31.93;8.73;;;;;;;26.91;70.91;99853.78;4198722;28;20606;-71
2022/08/23 09:34:22;;;;;;;26.43;8.73;;;;;;;27.03;70.87;99852.75;4211341;28;21219;-77
2022/08/23 09:36:49;;;;;;;30.77;9.03;;;;;;;27.16;70.64;99854.97;4189373;28;22363;-77
2022/08/23 09:39:25;;;;;;;30.27;8.80;;;;;;;27.17;69.85;99851.97;4244489;28;20307;-77
2022/08/23 09:41:57;;;;;;;24.83;8.10;;;;;;;27.37;69.76;99855.88;4209574;28;20248;-77
2022/08/23 09:44:39;;;;;;;28.90;9.20;;;;;;;27.38;69.58;99853.97;4195976;28;22251;-75
2022/08/23 09:47:13;;;;;;;31.10;8.33;;;;;;;27.53;70.07;99849.34;4252698;28;20312;-74
2022/08/23 09:49:41;;;;;;;39.03;9.57;;;;;;;27.62;68.65;99857.78;4278552;28;20236;-76
2022/08/23 09:52:21;;;;;;;26.23;9.00;;;;;;;27.85;66.79;99853.75;4235027;28;20295;-76
2022/08/23 09:55:25;;;;;;;21.83;9.13;;;;;;;28.33;66.24;99851.50;4209609;28;20232;-75
2022/08/23 09:57:52;;;;;;;28.87;9.73;;;;;;;28.67;64.07;99861.00;4243841;28;20892;-78
2022/08/23 10:00:24;;;;;;;22.77;8.10;;;;;;;28.78;63.31;99863.44;4253561;28;20237;-76
2022/08/23 10:02:56;;;;;;;32.13;8.67;;;;;;;28.95;64.39;99854.06;4215057;28;20231;-74
2022/08/23 10:05:39;;;;;;;26.45;8.15;;;;;;;29.08;65.07;99855.38;4238393;28;21503;-75
2022/08/23 10:08:05;;;;;;;29.83;9.10;;;;;;;29.22;63.12;99864.59;4206738;28;20664;-77
2022/08/23 10:10:48;;;;;;;34.22;8.15;;;;;;;28.90;63.37;99854.91;4229377;28;22045;-76
2022/08/23 10:13:17;;;;;;;30.13;8.00;;;;;;;28.88;64.54;99851.63;4229860;28;20241;-74
2022/08/23 10:15:55;;;;;;;31.60;8.67;;;;;;;29.19;64.11;99862.44;4215818;28;20264;-76
2022/08/23 10:18:40;;;;;;;27.95;8.27;;;;;;;29.10;63.29;99853.19;4226797;28;21664;-76
2022/08/23 10:21:20;;;;;;;25.13;8.55;;;;;;;29.21;62.34;99854.75;4212889;28;22684;-74
2022/08/23 10:24:12;;;;;;;29.75;8.23;;;;;;;29.29;61.73;99856.91;4241164;28;22309;-79
2022/08/23 10:29:35;;;;;;;28.23;7.50;;;;;;;29.15;61.55;99845.75;4231840;28;21618;-72
2022/08/23 10:29:53;;;;;;;40.30;9.30;;;;;;;29.11;62.29;99839.19;4247940;28;21572;-75
2022/08/23 10:32:38;;;;;;;37.93;8.60;;;;;;;29.53;58.89;99856.22;4254637;28;20264;-78
2022/08/23 10:35:23;;;;;;;31.08;7.30;;;;;;;29.57;60.61;99847.13;4194104;28;22165;-76
2022/08/23 10:38:12;;;;;;;24.30;7.32;;;;;;;29.58;58.65;99846.00;4224007;28;20311;-73
2022/08/23 10:40:46;;;;;;;37.03;7.90;;;;;;;29.65;59.18;99846.50;4255201;28;22656;-74
2022/08/23 10:43:35;;;;;;;31.55;7.80;;;;;;;29.30;58.22;99846.78;4217002;28;20227;-74
2022/08/23 10:46:02;;;;;;;33.33;8.30;;;;;;;28.88;61.20;99840.66;4232382;28;21040;-76
2022/08/23 10:48:35;;;;;;;26.05;8.13;;;;;;;28.93;62.12;99842.56;4236811;28;20241;-74
2022/08/23 10:51:08;;;;;;;35.90;8.80;;;;;;;29.06;60.75;99839.22;4247937;28;20327;-75
2022/08/23 10:54:06;;;;;;;31.33;8.57;;;;;;;29.30;61.38;99833.88;4191821;28;20242;-74
2022/08/23 10:56:34;;;;;;;26.45;7.43;;;;;;;29.45;60.42;99833.78;4191535;28;23262;-76
2022/08/23 10:59:13;;;;;;;48.90;8.50;;;;;;;29.34;59.98;99837.69;4263630;28;20240;-78
2022/08/23 11:01:49;;;;;;;26.67;7.53;;;;;;;29.36;59.25;99834.66;4218525;28;20241;-74
2022/08/23 11:04:46;;;;;;;30.17;7.37;;;;;;;29.41;57.46;99842.88;4187866;28;20507;-74
2022/08/23 11:07:58;;;;;;;30.10;8.00;;;;;;;29.35;57.34;99833.84;4236236;28;20246;-76
2022/08/23 11:10:47;;;;;;;28.73;7.17;;;;;;;29.22;58.47;99839.94;4193248;28;20630;-71
2022/08/23 11:13:27;;;;;;;26.15;6.78;;;;;;;29.29;56.07;99835.00;4214540;28;25377;-77
2022/08/23 11:15:59;;;;;;;39.40;7.18;;;;;;;29.52;54.36;99833.44;4244679;28;20237;-76
2022/08/23 11:18:47;;;;;;;35.50;7.50;;;;;;;29.69;54.53;99837.72;4224963;28;20296;-78
2022/08/23 11:21:17;;;;;;;37.83;6.60;;;;;;;29.67;52.56;99835.28;4222220;28;21154;-77
2022/08/23 11:23:57;;;;;;;28.58;6.80;;;;;;;29.78;52.57;99842.34;4253106;28;20232;-80
2022/08/23 11:26:26;;;;;;;36.75;6.38;;;;;;;29.80;49.64;99842.03;4227716;28;20228;-80
2022/08/23 11:29:08;;;;;;;31.25;6.60;;;;;;;29.79;50.98;99834.91;4226261;28;20256;-76
2022/08/23 11:31:38;;;;;;;37.20;5.90;;;;;;;29.62;50.08;99830.63;4236383;28;21486;-76
2022/08/23 11:34:09;;;;;;;26.77;6.25;;;;;;;29.33;49.96;99838.78;4212426;28;20243;-80
2022/08/23 11:36:36;;;;;;;35.85;7.38;;;;;;;29.62;49.49;99840.78;4232731;28;20262;-76
2022/08/23 11:39:09;;;;;;;33.58;6.82;;;;;;;29.81;50.94;99836.25;4224497;28;20615;-75
2022/08/23 11:41:54;;;;;;;34.10;5.50;;;;;;;29.86;48.38;99832.66;4185704;28;20398;-77